Sobieski, WI

11:56 PM CST on December 11, 2019 (GMT -0600)
Sobieski, Wisconsin | | Change Station
Active Advisory: Winter Weather Advisory

Elev 709 ft 44.72 °N, 88.12 °W | Updated 9 seconds ago

Overcast
Overcast
3.7 °F
Feels Like 4 °F
N
0
Wind Variable Wind from WNW
Gusts 0.0 mph

Today
High -- | Low -- °F
--% Chance of Precip.
Yesterday
High -- | Low -- °F
Precip. -- in
Pressure 30.48 in
Visibility 10.0 miles
Clouds Overcast 10000 ft
Windchill 4 °F
Dew Point -2 °F
Humidity 78%
Rainfall 0.00 in
Snow Depth Not available.
7:19 AM 4:11 PM
Full, 100% visible
METAR KOCQ 120535Z AUTO 26004KT 10SM OVC100 M16/M20 A3048 RMK AO1 T11621205
Pressure 30.48 in
Visibility 10.0 miles
Clouds Overcast 10000 ft
Windchill 4 °F
Dew Point -2 °F
Humidity 78%
Rainfall 0.00 in
Snow Depth Not available.
7:19 AM 4:11 PM
Full, 100% visible
METAR KOCQ 120535Z AUTO 26004KT 10SM OVC100 M16/M20 A3048 RMK AO1 T11621205

Get Your Daily Forecast Email!

Thanks for signing up!

Be on the lookout for a verification email in your inbox.

You'll start receiving severe weather alerts in your inbox..

×

10-Day Weather Forecast

Almanac

Astronomy

Dec. 11, 2019 Rise Set
Actual Time
Civil Twilight
Nautical Twilight
Astronomical Twilight
Moon
Length of Visible Light
Length of Day
Tomorrow will be .
, % of the Moon is Illuminated

Today's Extremes

State Highs State Lows

Community

WunderPhotos

Category 6

Welcome to Category 6. This is the collective home for Weather Underground's featured writeups by Dr. Jeff Masters (right), Bob Henson (left), Chris Burt, and other regular contributors.

Nearby

Air Quality

  Air Quality AQ Index Pollutant
Not available.

Snow Depth

Station Depth Elevation

Earthquake Activity

City Distance Mag. Time & Date
Minimum magnitude displayed is 2.5.

Coastal Water Temperatures

Place Temperature

Stations

Nearby Weather Stations

Station Location Temp. Windchill Dew Point Humidity Wind Precip. Elev Updated Type
                   

Watches & Warnings

Winter Weather Advisory
Issued: 9:55 PM CST Dec. 11, 2019 – National Weather Service

... Winter Weather Advisory remains in effect from 3 am to 6 PM
CST Thursday...

* what... snow expected. Total snow accumulations of 3 to 6
inches.

* Where... portions of central and northeast Wisconsin.

* When... from 3 am to 6 PM CST Thursday.

* Impacts... roads and sidewalks will be slick. Air travel delays
are possible.

Precautionary/preparedness actions...

Slow down and use caution while traveling.

The latest Road conditions for the state you are calling from can
be obtained by calling 5 1 1.